sensor_id;sensor_type;location;lat;lon;timestamp;temperature;humidity
14053;DHT22;7101;51.600;7.310;2023-08-06T00:00:09;15.40;99.90
14053;DHT22;7101;51.600;7.310;2023-08-06T00:02:36;15.40;99.90
14053;DHT22;7101;51.600;7.310;2023-08-06T00:05:03;15.40;99.90
14053;DHT22;7101;51.600;7.310;2023-08-06T00:07:30;15.40;99.90
14053;DHT22;7101;51.600;7.310;2023-08-06T00:09:57;15.40;99.90
14053;DHT22;7101;51.600;7.310;2023-08-06T00:12:24;15.40;99.90
14053;DHT22;7101;51.600;7.310;2023-08-06T00:14:53;15.40;99.90
14053;DHT22;7101;51.600;7.310;2023-08-06T00:17:20;15.40;99.90
14053;DHT22;7101;51.600;7.310;2023-08-06T00:19:47;15.30;99.90
14053;DHT22;7101;51.600;7.310;2023-08-06T00:22:13;15.30;99.90
14053;DHT22;7101;51.600;7.310;2023-08-06T00:24:40;15.30;99.90
14053;DHT22;7101;51.600;7.310;2023-08-06T00:27:08;15.30;99.90
14053;DHT22;7101;51.600;7.310;2023-08-06T00:29:36;15.30;99.90
14053;DHT22;7101;51.600;7.310;2023-08-06T00:32:05;15.30;99.90
14053;DHT22;7101;51.600;7.310;2023-08-06T00:34:34;15.30;99.90
14053;DHT22;7101;51.600;7.310;2023-08-06T00:37:00;15.30;99.90
14053;DHT22;7101;51.600;7.310;2023-08-06T00:39:28;15.40;99.90
14053;DHT22;7101;51.600;7.310;2023-08-06T00:41:57;15.40;99.90
14053;DHT22;7101;51.600;7.310;2023-08-06T00:44:26;15.40;99.90
14053;DHT22;7101;51.600;7.310;2023-08-06T00:46:55;15.40;99.90
14053;DHT22;7101;51.600;7.310;2023-08-06T00:49:24;15.30;99.90
14053;DHT22;7101;51.600;7.310;2023-08-06T00:51:55;15.40;99.90
14053;DHT22;7101;51.600;7.310;2023-08-06T00:54:24;15.40;99.90
14053;DHT22;7101;51.600;7.310;2023-08-06T00:56:51;15.40;99.90
14053;DHT22;7101;51.600;7.310;2023-08-06T00:59:19;15.50;99.90
14053;DHT22;7101;51.600;7.310;2023-08-06T01:01:47;15.50;99.90
14053;DHT22;7101;51.600;7.310;2023-08-06T01:04:16;15.50;99.90
14053;DHT22;7101;51.600;7.310;2023-08-06T01:06:48;15.50;99.90
14053;DHT22;7101;51.600;7.310;2023-08-06T01:09:27;15.50;99.90
14053;DHT22;7101;51.600;7.310;2023-08-06T01:12:01;15.50;99.90
14053;DHT22;7101;51.600;7.310;2023-08-06T01:14:37;15.50;99.90
14053;DHT22;7101;51.600;7.310;2023-08-06T01:17:05;15.50;99.90
14053;DHT22;7101;51.600;7.310;2023-08-06T01:19:33;15.50;99.90
14053;DHT22;7101;51.600;7.310;2023-08-06T01:22:01;15.50;99.90
14053;DHT22;7101;51.600;7.310;2023-08-06T01:24:29;15.40;99.90
14053;DHT22;7101;51.600;7.310;2023-08-06T01:27:03;15.40;99.90
14053;DHT22;7101;51.600;7.310;2023-08-06T01:29:34;15.50;99.90
14053;DHT22;7101;51.600;7.310;2023-08-06T01:32:03;15.40;99.90
14053;DHT22;7101;51.600;7.310;2023-08-06T01:34:33;15.40;99.90
14053;DHT22;7101;51.600;7.310;2023-08-06T01:37:02;15.40;99.90
14053;DHT22;7101;51.600;7.310;2023-08-06T01:39:33;15.40;99.90
14053;DHT22;7101;51.600;7.310;2023-08-06T01:42:00;15.40;99.90
14053;DHT22;7101;51.600;7.310;2023-08-06T01:44:27;15.40;99.90
14053;DHT22;7101;51.600;7.310;2023-08-06T01:46:54;15.40;99.90
14053;DHT22;7101;51.600;7.310;2023-08-06T01:49:21;15.40;99.90
14053;DHT22;7101;51.600;7.310;2023-08-06T01:51:48;15.30;99.90
14053;DHT22;7101;51.600;7.310;2023-08-06T01:54:16;15.40;99.90
14053;DHT22;7101;51.600;7.310;2023-08-06T01:56:43;15.30;99.90
14053;DHT22;7101;51.600;7.310;2023-08-06T01:59:11;15.30;99.90
14053;DHT22;7101;51.600;7.310;2023-08-06T02:01:38;15.40;99.90
14053;DHT22;7101;51.600;7.310;2023-08-06T02:04:08;15.40;99.90
14053;DHT22;7101;51.600;7.310;2023-08-06T02:06:36;15.40;99.90
14053;DHT22;7101;51.600;7.310;2023-08-06T02:09:04;15.50;99.90
14053;DHT22;7101;51.600;7.310;2023-08-06T02:11:34;15.50;99.90
14053;DHT22;7101;51.600;7.310;2023-08-06T02:14:01;15.40;99.90
14053;DHT22;7101;51.600;7.310;2023-08-06T02:16:29;15.40;99.90
14053;DHT22;7101;51.600;7.310;2023-08-06T02:18:56;15.50;99.90
14053;DHT22;7101;51.600;7.310;2023-08-06T02:21:23;15.50;99.90
14053;DHT22;7101;51.600;7.310;2023-08-06T02:23:51;15.50;99.90
14053;DHT22;7101;51.600;7.310;2023-08-06T02:26:19;15.40;99.90
14053;DHT22;7101;51.600;7.310;2023-08-06T02:28:47;15.50;99.90
14053;DHT22;7101;51.600;7.310;2023-08-06T02:31:16;15.40;99.90
14053;DHT22;7101;51.600;7.310;2023-08-06T02:33:43;15.30;99.90
14053;DHT22;7101;51.600;7.310;2023-08-06T02:36:11;15.40;99.90
14053;DHT22;7101;51.600;7.310;2023-08-06T02:38:38;15.40;99.90
14053;DHT22;7101;51.600;7.310;2023-08-06T02:41:05;15.30;99.90
14053;DHT22;7101;51.600;7.310;2023-08-06T02:43:34;15.30;99.90
14053;DHT22;7101;51.600;7.310;2023-08-06T02:46:03;15.30;99.90
14053;DHT22;7101;51.600;7.310;2023-08-06T02:48:30;15.20;99.90
14053;DHT22;7101;51.600;7.310;2023-08-06T02:50:59;15.20;99.90
14053;DHT22;7101;51.600;7.310;2023-08-06T02:53:26;15.20;99.90
14053;DHT22;7101;51.600;7.310;2023-08-06T02:55:53;15.20;99.90
14053;DHT22;7101;51.600;7.310;2023-08-06T02:58:21;15.10;99.90
14053;DHT22;7101;51.600;7.310;2023-08-06T03:00:59;15.00;99.90
14053;DHT22;7101;51.600;7.310;2023-08-06T03:03:32;15.20;99.90
14053;DHT22;7101;51.600;7.310;2023-08-06T03:06:00;15.20;99.90
14053;DHT22;7101;51.600;7.310;2023-08-06T03:08:28;15.20;99.90
14053;DHT22;7101;51.600;7.310;2023-08-06T03:10:55;15.20;99.90
14053;DHT22;7101;51.600;7.310;2023-08-06T03:13:22;15.20;99.90
14053;DHT22;7101;51.600;7.310;2023-08-06T03:15:52;15.10;99.90
14053;DHT22;7101;51.600;7.310;2023-08-06T03:18:20;15.10;99.90
14053;DHT22;7101;51.600;7.310;2023-08-06T03:20:50;15.10;99.90
14053;DHT22;7101;51.600;7.310;2023-08-06T03:23:17;15.10;99.90
14053;DHT22;7101;51.600;7.310;2023-08-06T03:25:44;15.10;99.90
14053;DHT22;7101;51.600;7.310;2023-08-06T03:28:12;15.00;99.90
14053;DHT22;7101;51.600;7.310;2023-08-06T03:30:39;15.00;99.90
14053;DHT22;7101;51.600;7.310;2023-08-06T03:33:07;15.00;99.90
14053;DHT22;7101;51.600;7.310;2023-08-06T03:35:35;15.00;99.90
14053;DHT22;7101;51.600;7.310;2023-08-06T03:38:04;14.90;99.90
14053;DHT22;7101;51.600;7.310;2023-08-06T03:40:31;15.00;99.90
14053;DHT22;7101;51.600;7.310;2023-08-06T03:42:58;14.90;99.90
14053;DHT22;7101;51.600;7.310;2023-08-06T03:45:24;14.90;99.90
14053;DHT22;7101;51.600;7.310;2023-08-06T03:47:51;14.90;99.90
14053;DHT22;7101;51.600;7.310;2023-08-06T03:50:20;14.80;99.90
14053;DHT22;7101;51.600;7.310;2023-08-06T03:52:48;14.70;99.90
14053;DHT22;7101;51.600;7.310;2023-08-06T03:55:17;14.60;99.90
14053;DHT22;7101;51.600;7.310;2023-08-06T03:57:44;14.50;99.90
14053;DHT22;7101;51.600;7.310;2023-08-06T04:00:11;14.50;99.90
14053;DHT22;7101;51.600;7.310;2023-08-06T04:02:40;14.40;99.90
14053;DHT22;7101;51.600;7.310;2023-08-06T04:05:11;14.40;99.90
14053;DHT22;7101;51.600;7.310;2023-08-06T04:07:40;14.40;99.90
14053;DHT22;7101;51.600;7.310;2023-08-06T04:10:08;14.40;99.90
14053;DHT22;7101;51.600;7.310;2023-08-06T04:12:37;14.40;99.90
14053;DHT22;7101;51.600;7.310;2023-08-06T04:15:05;14.30;99.90
14053;DHT22;7101;51.600;7.310;2023-08-06T04:17:33;14.40;99.90
14053;DHT22;7101;51.600;7.310;2023-08-06T04:20:01;14.40;99.90
14053;DHT22;7101;51.600;7.310;2023-08-06T04:22:29;14.40;99.90
14053;DHT22;7101;51.600;7.310;2023-08-06T04:24:55;14.40;99.90
14053;DHT22;7101;51.600;7.310;2023-08-06T04:27:22;14.40;99.90
14053;DHT22;7101;51.600;7.310;2023-08-06T04:29:51;14.50;99.90
14053;DHT22;7101;51.600;7.310;2023-08-06T04:32:18;14.50;99.90
14053;DHT22;7101;51.600;7.310;2023-08-06T04:34:45;14.60;99.90
14053;DHT22;7101;51.600;7.310;2023-08-06T04:37:13;14.60;99.90
14053;DHT22;7101;51.600;7.310;2023-08-06T04:39:41;14.60;99.90
14053;DHT22;7101;51.600;7.310;2023-08-06T04:42:08;14.90;99.90
14053;DHT22;7101;51.600;7.310;2023-08-06T04:44:36;14.80;99.90
14053;DHT22;7101;51.600;7.310;2023-08-06T04:47:04;14.80;99.90
14053;DHT22;7101;51.600;7.310;2023-08-06T04:49:31;14.90;99.90
14053;DHT22;7101;51.600;7.310;2023-08-06T04:51:58;14.90;99.90
14053;DHT22;7101;51.600;7.310;2023-08-06T04:54:25;14.90;99.90
14053;DHT22;7101;51.600;7.310;2023-08-06T04:56:53;15.00;99.90
14053;DHT22;7101;51.600;7.310;2023-08-06T04:59:20;15.00;99.90
14053;DHT22;7101;51.600;7.310;2023-08-06T05:01:47;15.00;99.90
14053;DHT22;7101;51.600;7.310;2023-08-06T05:04:16;15.10;99.90
14053;DHT22;7101;51.600;7.310;2023-08-06T05:06:44;15.30;99.90
14053;DHT22;7101;51.600;7.310;2023-08-06T05:09:11;15.40;99.90
14053;DHT22;7101;51.600;7.310;2023-08-06T05:11:39;15.40;99.90
14053;DHT22;7101;51.600;7.310;2023-08-06T05:14:07;15.50;99.90
14053;DHT22;7101;51.600;7.310;2023-08-06T05:16:35;15.60;99.90
14053;DHT22;7101;51.600;7.310;2023-08-06T05:19:01;15.90;99.90
14053;DHT22;7101;51.600;7.310;2023-08-06T05:21:31;16.30;99.90
14053;DHT22;7101;51.600;7.310;2023-08-06T05:23:58;16.80;99.90
14053;DHT22;7101;51.600;7.310;2023-08-06T05:26:25;17.20;1.00
14053;DHT22;7101;51.600;7.310;2023-08-06T05:28:52;17.30;99.90
14053;DHT22;7101;51.600;7.310;2023-08-06T05:31:20;17.60;1.00
14053;DHT22;7101;51.600;7.310;2023-08-06T05:33:47;18.20;99.90
14053;DHT22;7101;51.600;7.310;2023-08-06T05:36:15;19.10;1.00
14053;DHT22;7101;51.600;7.310;2023-08-06T05:38:44;19.40;1.00
14053;DHT22;7101;51.600;7.310;2023-08-06T05:41:11;19.50;1.00
14053;DHT22;7101;51.600;7.310;2023-08-06T05:43:39;19.00;1.00
14053;DHT22;7101;51.600;7.310;2023-08-06T05:46:06;18.70;1.00
14053;DHT22;7101;51.600;7.310;2023-08-06T05:48:33;18.40;1.00
14053;DHT22;7101;51.600;7.310;2023-08-06T05:51:01;18.10;1.00
14053;DHT22;7101;51.600;7.310;2023-08-06T05:53:29;18.10;1.00
14053;DHT22;7101;51.600;7.310;2023-08-06T05:55:57;17.80;1.00
14053;DHT22;7101;51.600;7.310;2023-08-06T05:58:24;17.80;1.00
14053;DHT22;7101;51.600;7.310;2023-08-06T06:00:55;17.90;1.00
14053;DHT22;7101;51.600;7.310;2023-08-06T06:03:22;17.90;1.00
14053;DHT22;7101;51.600;7.310;2023-08-06T06:05:50;18.00;1.00
14053;DHT22;7101;51.600;7.310;2023-08-06T06:08:18;18.20;1.00
14053;DHT22;7101;51.600;7.310;2023-08-06T06:10:45;18.50;1.00
14053;DHT22;7101;51.600;7.310;2023-08-06T06:13:14;18.50;1.00
14053;DHT22;7101;51.600;7.310;2023-08-06T06:15:42;18.40;1.00
14053;DHT22;7101;51.600;7.310;2023-08-06T06:18:09;18.10;1.00
14053;DHT22;7101;51.600;7.310;2023-08-06T06:20:36;18.30;1.00
14053;DHT22;7101;51.600;7.310;2023-08-06T06:23:03;18.20;1.00
14053;DHT22;7101;51.600;7.310;2023-08-06T06:25:32;18.60;1.00
14053;DHT22;7101;51.600;7.310;2023-08-06T06:28:01;19.20;1.00
14053;DHT22;7101;51.600;7.310;2023-08-06T06:30:29;20.20;1.00
14053;DHT22;7101;51.600;7.310;2023-08-06T06:32:56;20.30;1.00
14053;DHT22;7101;51.600;7.310;2023-08-06T06:35:23;20.20;1.00
14053;DHT22;7101;51.600;7.310;2023-08-06T06:37:50;20.00;1.00
14053;DHT22;7101;51.600;7.310;2023-08-06T06:40:17;19.60;1.00
14053;DHT22;7101;51.600;7.310;2023-08-06T06:42:43;19.60;1.00
14053;DHT22;7101;51.600;7.310;2023-08-06T06:45:10;19.70;1.00
14053;DHT22;7101;51.600;7.310;2023-08-06T06:47:39;20.80;1.00
14053;DHT22;7101;51.600;7.310;2023-08-06T06:50:07;20.80;1.00
14053;DHT22;7101;51.600;7.310;2023-08-06T06:52:34;21.00;1.00
14053;DHT22;7101;51.600;7.310;2023-08-06T06:55:02;21.50;1.00
14053;DHT22;7101;51.600;7.310;2023-08-06T06:57:28;21.50;1.00
14053;DHT22;7101;51.600;7.310;2023-08-06T06:59:55;21.30;1.00
14053;DHT22;7101;51.600;7.310;2023-08-06T07:02:22;21.10;1.00
14053;DHT22;7101;51.600;7.310;2023-08-06T07:04:51;20.80;1.00
14053;DHT22;7101;51.600;7.310;2023-08-06T07:07:19;20.70;1.00
14053;DHT22;7101;51.600;7.310;2023-08-06T07:09:46;20.70;1.00
14053;DHT22;7101;51.600;7.310;2023-08-06T07:12:12;21.00;1.00
14053;DHT22;7101;51.600;7.310;2023-08-06T07:14:39;21.10;1.00
14053;DHT22;7101;51.600;7.310;2023-08-06T07:17:06;21.20;1.00
14053;DHT22;7101;51.600;7.310;2023-08-06T07:19:33;21.30;1.00
14053;DHT22;7101;51.600;7.310;2023-08-06T07:22:01;21.20;1.00
14053;DHT22;7101;51.600;7.310;2023-08-06T07:24:28;21.30;1.00
14053;DHT22;7101;51.600;7.310;2023-08-06T07:26:56;21.50;1.00
14053;DHT22;7101;51.600;7.310;2023-08-06T07:29:24;21.60;1.00
14053;DHT22;7101;51.600;7.310;2023-08-06T07:31:51;21.60;1.00
14053;DHT22;7101;51.600;7.310;2023-08-06T07:34:17;21.90;1.00
14053;DHT22;7101;51.600;7.310;2023-08-06T07:36:45;22.00;1.00
14053;DHT22;7101;51.600;7.310;2023-08-06T07:39:15;21.90;1.00
14053;DHT22;7101;51.600;7.310;2023-08-06T07:41:44;21.90;1.00
14053;DHT22;7101;51.600;7.310;2023-08-06T07:44:12;21.60;1.00
14053;DHT22;7101;51.600;7.310;2023-08-06T07:46:41;21.60;1.00
14053;DHT22;7101;51.600;7.310;2023-08-06T07:49:09;21.70;1.00
14053;DHT22;7101;51.600;7.310;2023-08-06T07:51:36;21.70;1.00
14053;DHT22;7101;51.600;7.310;2023-08-06T07:54:03;21.80;1.00
14053;DHT22;7101;51.600;7.310;2023-08-06T07:56:33;21.60;1.00
14053;DHT22;7101;51.600;7.310;2023-08-06T07:59:01;21.80;1.00
14053;DHT22;7101;51.600;7.310;2023-08-06T08:01:28;21.60;1.00
14053;DHT22;7101;51.600;7.310;2023-08-06T08:03:55;21.30;1.00
14053;DHT22;7101;51.600;7.310;2023-08-06T08:06:22;21.50;1.00
14053;DHT22;7101;51.600;7.310;2023-08-06T08:08:50;21.20;1.00
14053;DHT22;7101;51.600;7.310;2023-08-06T08:11:20;21.10;1.00
14053;DHT22;7101;51.600;7.310;2023-08-06T08:13:50;20.90;1.00
14053;DHT22;7101;51.600;7.310;2023-08-06T08:16:17;21.00;1.00
14053;DHT22;7101;51.600;7.310;2023-08-06T08:18:44;21.10;1.00
14053;DHT22;7101;51.600;7.310;2023-08-06T08:21:11;21.00;1.00
14053;DHT22;7101;51.600;7.310;2023-08-06T08:23:38;20.90;1.00
14053;DHT22;7101;51.600;7.310;2023-08-06T08:26:04;21.00;1.00
14053;DHT22;7101;51.600;7.310;2023-08-06T08:28:31;20.80;1.00
14053;DHT22;7101;51.600;7.310;2023-08-06T08:31:00;20.60;1.00
14053;DHT22;7101;51.600;7.310;2023-08-06T08:33:31;20.50;1.00
14053;DHT22;7101;51.600;7.310;2023-08-06T08:36:04;20.30;1.00
14053;DHT22;7101;51.600;7.310;2023-08-06T08:38:32;20.20;1.00
14053;DHT22;7101;51.600;7.310;2023-08-06T08:40:58;20.20;1.00
14053;DHT22;7101;51.600;7.310;2023-08-06T08:43:27;20.40;1.00
14053;DHT22;7101;51.600;7.310;2023-08-06T08:46:02;20.40;1.00
14053;DHT22;7101;51.600;7.310;2023-08-06T08:48:30;20.50;1.00
14053;DHT22;7101;51.600;7.310;2023-08-06T08:50:58;20.70;1.00
14053;DHT22;7101;51.600;7.310;2023-08-06T08:53:27;20.80;1.00
14053;DHT22;7101;51.600;7.310;2023-08-06T08:55:54;20.80;1.00
14053;DHT22;7101;51.600;7.310;2023-08-06T08:58:21;20.90;1.00
14053;DHT22;7101;51.600;7.310;2023-08-06T09:00:49;20.80;1.00
14053;DHT22;7101;51.600;7.310;2023-08-06T09:03:20;20.90;1.00
14053;DHT22;7101;51.600;7.310;2023-08-06T09:05:50;21.30;1.00
14053;DHT22;7101;51.600;7.310;2023-08-06T09:08:24;21.60;1.00
14053;DHT22;7101;51.600;7.310;2023-08-06T09:10:53;21.90;1.00
14053;DHT22;7101;51.600;7.310;2023-08-06T09:13:24;22.10;1.00
14053;DHT22;7101;51.600;7.310;2023-08-06T09:15:52;22.50;1.00
14053;DHT22;7101;51.600;7.310;2023-08-06T09:18:26;22.70;1.00
14053;DHT22;7101;51.600;7.310;2023-08-06T09:20:55;22.80;1.00
14053;DHT22;7101;51.600;7.310;2023-08-06T09:23:27;22.80;1.00
14053;DHT22;7101;51.600;7.310;2023-08-06T09:25:55;22.40;1.00
14053;DHT22;7101;51.600;7.310;2023-08-06T09:28:24;21.90;1.00
14053;DHT22;7101;51.600;7.310;2023-08-06T09:30:52;21.50;1.00
14053;DHT22;7101;51.600;7.310;2023-08-06T09:33:23;21.40;1.00
14053;DHT22;7101;51.600;7.310;2023-08-06T09:35:51;21.70;1.00
14053;DHT22;7101;51.600;7.310;2023-08-06T09:38:20;21.90;1.00
14053;DHT22;7101;51.600;7.310;2023-08-06T09:40:47;22.20;1.00
14053;DHT22;7101;51.600;7.310;2023-08-06T09:43:19;21.90;1.00
14053;DHT22;7101;51.600;7.310;2023-08-06T09:45:50;21.80;1.00
14053;DHT22;7101;51.600;7.310;2023-08-06T09:48:17;22.00;1.00
14053;DHT22;7101;51.600;7.310;2023-08-06T09:50:43;22.30;1.00
14053;DHT22;7101;51.600;7.310;2023-08-06T09:53:18;21.80;1.00
14053;DHT22;7101;51.600;7.310;2023-08-06T09:55:46;22.00;1.00
14053;DHT22;7101;51.600;7.310;2023-08-06T09:58:16;22.00;1.00
14053;DHT22;7101;51.600;7.310;2023-08-06T10:00:44;21.60;1.00
14053;DHT22;7101;51.600;7.310;2023-08-06T10:03:12;21.30;1.00
14053;DHT22;7101;51.600;7.310;2023-08-06T10:05:40;21.30;1.00
14053;DHT22;7101;51.600;7.310;2023-08-06T10:08:07;21.20;1.00
14053;DHT22;7101;51.600;7.310;2023-08-06T10:10:36;20.70;1.00
14053;DHT22;7101;51.600;7.310;2023-08-06T10:13:06;20.40;1.00
14053;DHT22;7101;51.600;7.310;2023-08-06T10:15:35;19.90;1.00
14053;DHT22;7101;51.600;7.310;2023-08-06T10:18:05;19.70;1.00
14053;DHT22;7101;51.600;7.310;2023-08-06T10:20:34;19.70;1.00
14053;DHT22;7101;51.600;7.310;2023-08-06T10:23:01;19.90;1.00
14053;DHT22;7101;51.600;7.310;2023-08-06T10:25:32;19.80;1.00
14053;DHT22;7101;51.600;7.310;2023-08-06T10:28:07;19.70;1.00
14053;DHT22;7101;51.600;7.310;2023-08-06T10:30:41;20.10;1.00
14053;DHT22;7101;51.600;7.310;2023-08-06T10:33:08;20.40;1.00
14053;DHT22;7101;51.600;7.310;2023-08-06T10:35:36;20.70;1.00
14053;DHT22;7101;51.600;7.310;2023-08-06T10:38:04;20.80;1.00
14053;DHT22;7101;51.600;7.310;2023-08-06T10:40:32;20.70;1.00
14053;DHT22;7101;51.600;7.310;2023-08-06T10:43:02;20.80;1.00
14053;DHT22;7101;51.600;7.310;2023-08-06T10:45:34;21.20;1.00
14053;DHT22;7101;51.600;7.310;2023-08-06T10:48:02;21.40;1.00
14053;DHT22;7101;51.600;7.310;2023-08-06T10:50:29;21.70;1.00
14053;DHT22;7101;51.600;7.310;2023-08-06T10:53:02;21.80;1.00
14053;DHT22;7101;51.600;7.310;2023-08-06T10:55:32;21.90;1.00
14053;DHT22;7101;51.600;7.310;2023-08-06T10:58:00;22.10;1.00
14053;DHT22;7101;51.600;7.310;2023-08-06T11:00:29;22.10;1.00
14053;DHT22;7101;51.600;7.310;2023-08-06T11:02:56;22.20;1.00
14053;DHT22;7101;51.600;7.310;2023-08-06T11:05:23;22.20;1.00
14053;DHT22;7101;51.600;7.310;2023-08-06T11:07:52;21.80;1.00
14053;DHT22;7101;51.600;7.310;2023-08-06T11:10:19;22.30;1.00
14053;DHT22;7101;51.600;7.310;2023-08-06T11:12:46;22.40;1.00
14053;DHT22;7101;51.600;7.310;2023-08-06T11:15:16;23.30;1.00
14053;DHT22;7101;51.600;7.310;2023-08-06T11:17:45;23.70;1.00
14053;DHT22;7101;51.600;7.310;2023-08-06T11:20:13;23.40;1.00
14053;DHT22;7101;51.600;7.310;2023-08-06T11:22:40;23.80;1.00
14053;DHT22;7101;51.600;7.310;2023-08-06T11:25:07;23.70;1.00
14053;DHT22;7101;51.600;7.310;2023-08-06T11:27:34;24.20;1.00
14053;DHT22;7101;51.600;7.310;2023-08-06T11:30:01;24.30;1.00
14053;DHT22;7101;51.600;7.310;2023-08-06T11:32:32;24.60;1.00
14053;DHT22;7101;51.600;7.310;2023-08-06T11:35:09;24.00;1.00
14053;DHT22;7101;51.600;7.310;2023-08-06T11:37:43;24.40;1.00
14053;DHT22;7101;51.600;7.310;2023-08-06T11:40:10;24.60;1.00
14053;DHT22;7101;51.600;7.310;2023-08-06T11:42:38;24.40;1.00
14053;DHT22;7101;51.600;7.310;2023-08-06T11:45:05;24.30;1.00
14053;DHT22;7101;51.600;7.310;2023-08-06T11:47:38;24.40;1.00
14053;DHT22;7101;51.600;7.310;2023-08-06T11:50:05;24.00;1.00
14053;DHT22;7101;51.600;7.310;2023-08-06T11:52:33;23.80;1.00
14053;DHT22;7101;51.600;7.310;2023-08-06T11:55:01;23.40;1.00
14053;DHT22;7101;51.600;7.310;2023-08-06T11:57:32;22.90;1.00
14053;DHT22;7101;51.600;7.310;2023-08-06T12:00:03;22.70;1.00
14053;DHT22;7101;51.600;7.310;2023-08-06T12:02:31;22.10;1.00
14053;DHT22;7101;51.600;7.310;2023-08-06T12:05:09;21.10;1.00
14053;DHT22;7101;51.600;7.310;2023-08-06T12:07:38;20.10;1.00
14053;DHT22;7101;51.600;7.310;2023-08-06T12:10:05;19.30;1.00
14053;DHT22;7101;51.600;7.310;2023-08-06T12:12:33;18.80;1.00
14053;DHT22;7101;51.600;7.310;2023-08-06T12:15:01;18.50;99.90
14053;DHT22;7101;51.600;7.310;2023-08-06T12:17:29;18.50;99.90
14053;DHT22;7101;51.600;7.310;2023-08-06T12:19:56;18.40;99.90
14053;DHT22;7101;51.600;7.310;2023-08-06T12:22:25;18.30;1.00
14053;DHT22;7101;51.600;7.310;2023-08-06T12:24:52;18.30;1.00
14053;DHT22;7101;51.600;7.310;2023-08-06T12:27:19;18.20;1.00
14053;DHT22;7101;51.600;7.310;2023-08-06T12:29:47;18.20;1.00
14053;DHT22;7101;51.600;7.310;2023-08-06T12:32:15;18.10;17.70
14053;DHT22;7101;51.600;7.310;2023-08-06T12:34:43;17.90;41.80
14053;DHT22;7101;51.600;7.310;2023-08-06T12:37:10;17.70;99.90
14053;DHT22;7101;51.600;7.310;2023-08-06T12:39:38;17.70;1.00
14053;DHT22;7101;51.600;7.310;2023-08-06T12:42:06;17.60;1.00
14053;DHT22;7101;51.600;7.310;2023-08-06T12:44:34;17.50;99.90
14053;DHT22;7101;51.600;7.310;2023-08-06T12:47:01;17.40;27.90
14053;DHT22;7101;51.600;7.310;2023-08-06T12:49:28;17.40;1.00
14053;DHT22;7101;51.600;7.310;2023-08-06T12:51:57;17.40;1.00
14053;DHT22;7101;51.600;7.310;2023-08-06T12:54:25;17.20;1.00
14053;DHT22;7101;51.600;7.310;2023-08-06T12:56:54;17.00;1.00
14053;DHT22;7101;51.600;7.310;2023-08-06T12:59:22;17.10;99.90
14053;DHT22;7101;51.600;7.310;2023-08-06T13:01:50;17.00;1.00
14053;DHT22;7101;51.600;7.310;2023-08-06T13:04:17;17.10;1.00
14053;DHT22;7101;51.600;7.310;2023-08-06T13:06:44;17.10;99.90
14053;DHT22;7101;51.600;7.310;2023-08-06T13:09:11;16.90;99.90
14053;DHT22;7101;51.600;7.310;2023-08-06T13:11:38;16.90;1.00
14053;DHT22;7101;51.600;7.310;2023-08-06T13:14:07;16.60;1.00
14053;DHT22;7101;51.600;7.310;2023-08-06T13:16:35;16.30;1.00
14053;DHT22;7101;51.600;7.310;2023-08-06T13:19:04;16.30;1.00
14053;DHT22;7101;51.600;7.310;2023-08-06T13:21:34;16.10;1.00
14053;DHT22;7101;51.600;7.310;2023-08-06T13:24:02;16.00;48.90
14053;DHT22;7101;51.600;7.310;2023-08-06T13:26:29;15.90;99.90
14053;DHT22;7101;51.600;7.310;2023-08-06T13:28:57;15.90;1.00
14053;DHT22;7101;51.600;7.310;2023-08-06T13:31:26;15.80;1.00
14053;DHT22;7101;51.600;7.310;2023-08-06T13:33:54;15.60;99.90
14053;DHT22;7101;51.600;7.310;2023-08-06T13:36:23;15.60;1.00
14053;DHT22;7101;51.600;7.310;2023-08-06T13:38:52;15.50;1.00
14053;DHT22;7101;51.600;7.310;2023-08-06T13:41:19;15.40;99.90
14053;DHT22;7101;51.600;7.310;2023-08-06T13:43:45;15.50;99.90
14053;DHT22;7101;51.600;7.310;2023-08-06T13:46:14;15.50;99.90
14053;DHT22;7101;51.600;7.310;2023-08-06T13:48:44;15.40;99.90
14053;DHT22;7101;51.600;7.310;2023-08-06T13:51:13;15.40;99.90
14053;DHT22;7101;51.600;7.310;2023-08-06T13:53:41;15.40;99.90
14053;DHT22;7101;51.600;7.310;2023-08-06T13:56:10;15.30;99.90
14053;DHT22;7101;51.600;7.310;2023-08-06T13:58:38;15.30;99.90
14053;DHT22;7101;51.600;7.310;2023-08-06T14:01:05;15.30;99.90
14053;DHT22;7101;51.600;7.310;2023-08-06T14:03:33;15.30;99.90
14053;DHT22;7101;51.600;7.310;2023-08-06T14:06:01;15.20;99.90
14053;DHT22;7101;51.600;7.310;2023-08-06T14:08:28;15.30;99.90
14053;DHT22;7101;51.600;7.310;2023-08-06T14:10:56;15.30;99.90
14053;DHT22;7101;51.600;7.310;2023-08-06T14:13:22;15.30;99.90
14053;DHT22;7101;51.600;7.310;2023-08-06T14:15:51;15.40;99.90
14053;DHT22;7101;51.600;7.310;2023-08-06T14:18:19;15.30;99.90
14053;DHT22;7101;51.600;7.310;2023-08-06T14:20:46;15.40;99.90
14053;DHT22;7101;51.600;7.310;2023-08-06T14:23:20;15.40;99.90
14053;DHT22;7101;51.600;7.310;2023-08-06T14:25:47;15.40;99.90
14053;DHT22;7101;51.600;7.310;2023-08-06T14:28:15;15.50;99.90
14053;DHT22;7101;51.600;7.310;2023-08-06T14:30:42;15.70;99.90
14053;DHT22;7101;51.600;7.310;2023-08-06T14:33:09;15.80;99.90
14053;DHT22;7101;51.600;7.310;2023-08-06T14:35:36;15.90;99.90
14053;DHT22;7101;51.600;7.310;2023-08-06T14:38:03;15.90;99.90
14053;DHT22;7101;51.600;7.310;2023-08-06T14:40:31;15.90;99.90
14053;DHT22;7101;51.600;7.310;2023-08-06T14:43:03;16.10;99.90
14053;DHT22;7101;51.600;7.310;2023-08-06T14:45:30;16.00;99.90
14053;DHT22;7101;51.600;7.310;2023-08-06T14:47:57;16.00;99.90
14053;DHT22;7101;51.600;7.310;2023-08-06T14:50:24;15.90;99.90
14053;DHT22;7101;51.600;7.310;2023-08-06T14:52:51;15.90;99.90
14053;DHT22;7101;51.600;7.310;2023-08-06T14:55:23;16.10;94.90
14053;DHT22;7101;51.600;7.310;2023-08-06T14:57:52;16.30;99.90
14053;DHT22;7101;51.600;7.310;2023-08-06T15:00:19;16.70;99.90
14053;DHT22;7101;51.600;7.310;2023-08-06T15:02:47;17.10;10.00
14053;DHT22;7101;51.600;7.310;2023-08-06T15:05:15;17.40;1.00
14053;DHT22;7101;51.600;7.310;2023-08-06T15:07:43;17.60;1.00
14053;DHT22;7101;51.600;7.310;2023-08-06T15:10:10;17.90;99.90
14053;DHT22;7101;51.600;7.310;2023-08-06T15:12:42;18.10;99.90
14053;DHT22;7101;51.600;7.310;2023-08-06T15:15:11;18.30;1.00
14053;DHT22;7101;51.600;7.310;2023-08-06T15:17:38;18.30;1.00
14053;DHT22;7101;51.600;7.310;2023-08-06T15:20:06;18.20;1.00
14053;DHT22;7101;51.600;7.310;2023-08-06T15:22:33;18.20;1.00
14053;DHT22;7101;51.600;7.310;2023-08-06T15:25:01;18.10;1.00
14053;DHT22;7101;51.600;7.310;2023-08-06T15:27:28;18.20;1.00
14053;DHT22;7101;51.600;7.310;2023-08-06T15:29:56;18.40;1.00
14053;DHT22;7101;51.600;7.310;2023-08-06T15:32:25;18.30;1.00
14053;DHT22;7101;51.600;7.310;2023-08-06T15:34:53;18.30;1.00
14053;DHT22;7101;51.600;7.310;2023-08-06T15:37:20;18.30;1.00
14053;DHT22;7101;51.600;7.310;2023-08-06T15:39:46;18.10;1.00
14053;DHT22;7101;51.600;7.310;2023-08-06T15:42:13;17.90;1.00
14053;DHT22;7101;51.600;7.310;2023-08-06T15:44:43;17.70;1.00
14053;DHT22;7101;51.600;7.310;2023-08-06T15:47:10;17.40;1.00
14053;DHT22;7101;51.600;7.310;2023-08-06T15:49:39;17.40;1.00
14053;DHT22;7101;51.600;7.310;2023-08-06T15:52:07;17.10;1.00
14053;DHT22;7101;51.600;7.310;2023-08-06T15:54:34;17.00;1.00
14053;DHT22;7101;51.600;7.310;2023-08-06T15:57:01;16.90;1.00
14053;DHT22;7101;51.600;7.310;2023-08-06T15:59:30;16.70;1.00